Time;durP1;ratioP1;P1;durP2;ratioP2;P2;SDS_P1;SDS_P2;PMS_P1;PMS_P2;Temp;Humidity;BMP_temperature;BMP_pressure;BME280_temperature;BME280_humidity;BME280_pressure;Samples;Min_cycle;Max_cycle;Signal;HPM_P1;HPM_P2
2023/07/16 00:02:12;;;;;;;22.15;19.67;;;;;;;;;;6377432;22;20009;-92
2023/07/16 00:04:41;;;;;;;24.33;21.85;;;;;;;;;;6377629;22;20092;-95
2023/07/16 00:07:10;;;;;;;23.30;21.10;;;;;;;;;;6377252;22;20005;-96
2023/07/16 00:09:42;;;;;;;22.38;20.17;;;;;;;;;;6373240;22;20012;-95
2023/07/16 00:12:11;;;;;;;25.25;21.83;;;;;;;;;;6377668;22;20021;-94
2023/07/16 00:14:43;;;;;;;24.55;22.00;;;;;;;;;;6377832;22;20066;-93
2023/07/16 00:17:10;;;;;;;24.50;22.17;;;;;;;;;;6378408;22;20005;-95
2023/07/16 00:19:42;;;;;;;22.35;20.17;;;;;;;;;;6379759;22;20029;-95
2023/07/16 00:22:13;;;;;;;25.05;22.35;;;;;;;;;;6378504;22;20006;-93
2023/07/16 00:24:46;;;;;;;24.25;21.90;;;;;;;;;;6380556;22;20013;-95
2023/07/16 00:27:12;;;;;;;23.40;20.92;;;;;;;;;;6393552;22;19986;-94
2023/07/16 00:29:41;;;;;;;24.75;22.45;;;;;;;;;;6399807;22;20017;-96
2023/07/16 00:32:14;;;;;;;25.83;23.35;;;;;;;;;;6384148;22;20018;-96
2023/07/16 00:34:40;;;;;;;26.70;24.20;;;;;;;;;;6382565;22;19998;-94
2023/07/16 00:40:12;;;;;;;27.27;24.67;;;;;;;;;;6254836;23;20034;-95
2023/07/16 00:42:50;;;;;;;25.35;22.85;;;;;;;;;;6229511;23;20008;-96
2023/07/16 00:48:47;;;;;;;27.42;24.63;;;;;;;;;;6379402;22;20052;-94
2023/07/16 00:51:17;;;;;;;29.08;26.10;;;;;;;;;;6320761;22;20010;-92
2023/07/16 00:56:22;;;;;;;28.08;25.48;;;;;;;;;;6405076;22;20082;-93
2023/07/16 01:04:34;;;;;;;30.20;27.13;;;;;;;;;;6379152;22;20006;-92
2023/07/16 01:07:19;;;;;;;28.48;25.73;;;;;;;;;;6345863;22;20029;-94
2023/07/16 01:16:01;;;;;;;30.42;27.63;;;;;;;;;;6372462;22;20508;-93
2023/07/16 01:18:31;;;;;;;28.85;26.17;;;;;;;;;;6344852;22;20034;-92
2023/07/16 01:21:00;;;;;;;32.20;28.88;;;;;;;;;;6345352;22;19998;-92
2023/07/16 01:23:44;;;;;;;32.05;29.08;;;;;;;;;;6345286;22;20495;-92
2023/07/16 01:29:38;;;;;;;34.83;31.20;;;;;;;;;;6372545;22;20059;-94
2023/07/16 01:32:29;;;;;;;33.70;30.45;;;;;;;;;;6347051;22;20380;-93
2023/07/16 01:34:59;;;;;;;32.20;29.17;;;;;;;;;;6346506;22;20082;-95
2023/07/16 01:37:31;;;;;;;34.88;31.48;;;;;;;;;;6351983;22;19998;-92
2023/07/16 01:40:03;;;;;;;32.13;28.80;;;;;;;;;;6345808;22;20496;-94
2023/07/16 01:42:32;;;;;;;33.50;30.30;;;;;;;;;;6344921;22;20022;-94
2023/07/16 01:45:02;;;;;;;35.90;32.28;;;;;;;;;;6344255;22;20006;-95
2023/07/16 01:47:37;;;;;;;35.70;32.30;;;;;;;;;;6344374;22;19998;-95
2023/07/16 01:50:09;;;;;;;35.72;32.25;;;;;;;;;;6343987;22;20050;-93
2023/07/16 01:52:41;;;;;;;35.80;32.47;;;;;;;;;;6344160;22;20013;-92
2023/07/16 01:55:11;;;;;;;35.67;32.17;;;;;;;;;;6347562;22;20005;-93
2023/07/16 01:57:46;;;;;;;36.50;32.80;;;;;;;;;;6314350;22;20063;-94
2023/07/16 02:00:12;;;;;;;35.53;32.17;;;;;;;;;;6284418;22;20000;-93
2023/07/16 02:02:47;;;;;;;35.95;32.28;;;;;;;;;;6280668;22;20003;-94
2023/07/16 02:05:20;;;;;;;35.30;32.05;;;;;;;;;;6303185;22;20022;-93
2023/07/16 02:07:52;;;;;;;33.95;30.75;;;;;;;;;;6353500;22;20002;-96
2023/07/16 02:12:47;;;;;;;36.65;33.15;;;;;;;;;;6365534;22;20031;-93
2023/07/16 02:18:14;;;;;;;38.42;34.53;;;;;;;;;;6393022;22;20026;-95
2023/07/16 02:20:47;;;;;;;38.50;34.78;;;;;;;;;;6380444;22;20081;-96
2023/07/16 02:23:49;;;;;;;36.33;32.75;;;;;;;;;;6383466;22;20438;-95
2023/07/16 02:26:18;;;;;;;36.65;32.97;;;;;;;;;;6382538;22;20030;-96
2023/07/16 02:28:45;;;;;;;38.58;34.67;;;;;;;;;;6383581;22;20006;-96
2023/07/16 02:31:17;;;;;;;37.58;33.92;;;;;;;;;;6383940;22;20037;-95
2023/07/16 02:36:23;;;;;;;35.17;32.08;;;;;;;;;;6343377;22;20022;-91
2023/07/16 02:38:52;;;;;;;36.60;33.08;;;;;;;;;;6342619;22;20014;-93
2023/07/16 02:42:03;;;;;;;36.45;32.97;;;;;;;;;;6351809;22;20003;-91
2023/07/16 02:44:32;;;;;;;38.50;34.60;;;;;;;;;;6354107;22;19999;-96
2023/07/16 02:47:05;;;;;;;36.17;32.65;;;;;;;;;;6360065;22;20078;-90
2023/07/16 02:49:45;;;;;;;36.63;33.13;;;;;;;;;;6363971;22;20014;-94
2023/07/16 02:52:11;;;;;;;32.67;29.75;;;;;;;;;;6353361;22;20014;-94
2023/07/16 02:54:46;;;;;;;34.78;31.40;;;;;;;;;;6347833;22;20034;-96
2023/07/16 03:00:22;;;;;;;33.72;30.33;;;;;;;;;;6387279;22;20634;-95
2023/07/16 03:02:51;;;;;;;35.33;31.75;;;;;;;;;;6387339;22;20006;-93
2023/07/16 03:05:18;;;;;;;35.20;31.60;;;;;;;;;;6383905;22;20025;-95
2023/07/16 03:07:50;;;;;;;35.65;32.15;;;;;;;;;;6377968;22;20009;-92
2023/07/16 03:10:22;;;;;;;34.05;30.80;;;;;;;;;;6377744;22;20037;-95
2023/07/16 03:13:00;;;;;;;33.42;30.05;;;;;;;;;;6379418;22;20055;-94
2023/07/16 03:15:33;;;;;;;34.63;31.45;;;;;;;;;;6384882;22;20014;-95
2023/07/16 03:21:05;;;;;;;34.53;30.95;;;;;;;;;;6403278;22;20049;-96
2023/07/16 03:29:24;;;;;;;34.38;31.08;;;;;;;;;;6381833;22;20030;-95
2023/07/16 03:31:59;;;;;;;34.75;31.25;;;;;;;;;;6357240;22;20007;-94
2023/07/16 03:34:45;;;;;;;31.83;28.75;;;;;;;;;;6359704;22;20002;-93
2023/07/16 03:37:50;;;;;;;32.63;29.35;;;;;;;;;;6375111;22;20062;-96
2023/07/16 03:40:30;;;;;;;32.60;29.48;;;;;;;;;;6348877;22;20010;-96
2023/07/16 03:42:57;;;;;;;33.58;30.33;;;;;;;;;;6382019;22;20002;-93
2023/07/16 03:45:32;;;;;;;33.42;28.10;;;;;;;;;;6362266;22;20003;-95
2023/07/16 03:50:45;;;;;;;30.52;27.70;;;;;;;;;;6352569;22;20022;-96
2023/07/16 03:53:33;;;;;;;32.25;28.95;;;;;;;;;;6323673;22;20038;-96
2023/07/16 04:01:20;;;;;;;28.75;26.05;;;;;;;;;;6373796;22;20052;-94
2023/07/16 04:04:04;;;;;;;28.83;26.17;;;;;;;;;;6370280;22;20014;-95
2023/07/16 04:06:31;;;;;;;27.17;24.50;;;;;;;;;;6346740;22;20095;-93
2023/07/16 04:09:00;;;;;;;26.75;24.02;;;;;;;;;;6346000;22;20029;-94
2023/07/16 04:11:34;;;;;;;22.63;20.45;;;;;;;;;;6344846;22;20024;-94
2023/07/16 04:14:01;;;;;;;21.63;19.20;;;;;;;;;;6344366;22;20006;-94
2023/07/16 04:16:36;;;;;;;17.52;16.02;;;;;;;;;;6346137;22;20006;-92
2023/07/16 04:19:05;;;;;;;15.45;13.88;;;;;;;;;;6343826;22;19998;-93
2023/07/16 04:21:31;;;;;;;14.10;12.73;;;;;;;;;;6343511;22;20002;-91
2023/07/16 04:24:03;;;;;;;12.93;11.73;;;;;;;;;;6344026;22;20003;-93
2023/07/16 04:26:29;;;;;;;11.90;10.80;;;;;;;;;;6344504;22;20013;-92
2023/07/16 04:28:58;;;;;;;10.68;8.45;;;;;;;;;;6343980;22;20074;-94
2023/07/16 04:31:24;;;;;;;10.77;9.60;;;;;;;;;;6371121;22;20015;-96
2023/07/16 04:33:57;;;;;;;11.63;9.82;;;;;;;;;;6348327;22;20006;-95
2023/07/16 04:36:26;;;;;;;11.77;9.10;;;;;;;;;;6377052;22;20010;-92
2023/07/16 04:38:55;;;;;;;11.68;9.43;;;;;;;;;;6376443;22;20056;-94
2023/07/16 04:41:22;;;;;;;13.15;9.80;;;;;;;;;;6376437;22;20002;-94
2023/07/16 04:43:49;;;;;;;10.27;8.88;;;;;;;;;;6375913;22;20063;-95
2023/07/16 04:46:16;;;;;;;11.25;8.05;;;;;;;;;;6376029;22;20570;-94
2023/07/16 04:48:45;;;;;;;9.18;6.28;;;;;;;;;;6372207;22;20008;-94
2023/07/16 04:51:18;;;;;;;14.20;8.05;;;;;;;;;;6376176;22;20010;-94
2023/07/16 04:59:39;;;;;;;7.03;5.93;;;;;;;;;;6373765;22;20013;-91
2023/07/16 05:02:08;;;;;;;7.80;6.90;;;;;;;;;;6371838;22;20009;-95
2023/07/16 05:04:38;;;;;;;7.57;6.72;;;;;;;;;;6374682;22;20033;-93
2023/07/16 05:07:14;;;;;;;7.70;5.80;;;;;;;;;;6371292;22;20005;-92
2023/07/16 05:09:40;;;;;;;8.00;6.78;;;;;;;;;;6370754;22;20002;-93
2023/07/16 05:12:13;;;;;;;7.80;6.97;;;;;;;;;;6371026;22;20021;-92
2023/07/16 05:14:39;;;;;;;;;;;;;;;;;;6371661;22;20324;-91
2023/07/16 05:17:08;;;;;;;11.80;6.95;;;;;;;;;;6370416;22;19905;-92
2023/07/16 05:19:37;;;;;;;8.55;6.82;;;;;;;;;;6370645;22;20060;-93
2023/07/16 05:22:03;;;;;;;10.60;7.68;;;;;;;;;;6370566;22;20051;-93
2023/07/16 05:24:30;;;;;;;8.32;7.47;;;;;;;;;;6370739;22;20094;-93
2023/07/16 05:26:58;;;;;;;8.95;7.40;;;;;;;;;;6370765;22;20129;-93
2023/07/16 05:29:27;;;;;;;9.35;6.75;;;;;;;;;;6370823;22;20009;-93
2023/07/16 05:31:56;;;;;;;8.38;7.07;;;;;;;;;;6371611;22;20089;-93
2023/07/16 05:34:25;;;;;;;8.10;6.30;;;;;;;;;;6376652;22;20048;-94
2023/07/16 05:36:58;;;;;;;7.50;6.13;;;;;;;;;;6384505;22;20006;-92
2023/07/16 05:39:27;;;;;;;7.07;6.03;;;;;;;;;;6382866;22;20006;-92
2023/07/16 05:41:56;;;;;;;5.97;5.25;;;;;;;;;;6392599;22;20005;-91
2023/07/16 05:44:22;;;;;;;10.77;6.43;;;;;;;;;;6361445;22;20021;-91
2023/07/16 05:46:48;;;;;;;7.60;5.55;;;;;;;;;;6347822;22;20366;-93
2023/07/16 05:49:21;;;;;;;8.63;5.97;;;;;;;;;;6375588;22;20427;-93
2023/07/16 05:51:49;;;;;;;9.80;6.10;;;;;;;;;;6370602;22;20020;-94
2023/07/16 05:54:21;;;;;;;8.30;6.05;;;;;;;;;;6370393;22;20003;-93
2023/07/16 05:56:50;;;;;;;7.63;6.10;;;;;;;;;;6370879;22;20009;-96
2023/07/16 05:59:22;;;;;;;9.63;6.40;;;;;;;;;;6371375;22;20081;-92
2023/07/16 06:01:52;;;;;;;11.63;6.00;;;;;;;;;;6371046;22;19999;-95
2023/07/16 06:04:18;;;;;;;7.57;6.03;;;;;;;;;;6370545;22;20003;-96
2023/07/16 06:06:53;;;;;;;7.22;5.47;;;;;;;;;;6368179;22;20335;-96
2023/07/16 06:09:19;;;;;;;8.35;5.63;;;;;;;;;;6371091;22;20051;-94
2023/07/16 06:11:47;;;;;;;6.88;5.47;;;;;;;;;;6370193;22;20021;-92
2023/07/16 06:20:24;;;;;;;8.18;5.07;;;;;;;;;;6371473;22;20013;-96
2023/07/16 06:22:50;;;;;;;6.85;4.68;;;;;;;;;;6365824;22;20002;-95
2023/07/16 06:25:28;;;;;;;7.18;4.88;;;;;;;;;;6370278;22;20002;-95
2023/07/16 06:27:54;;;;;;;6.05;4.80;;;;;;;;;;6369913;22;20006;-95
2023/07/16 06:30:21;;;;;;;7.40;4.82;;;;;;;;;;6370265;22;20541;-93
2023/07/16 06:32:50;;;;;;;7.63;5.38;;;;;;;;;;6343979;22;20457;-94
2023/07/16 06:35:19;;;;;;;5.63;4.68;;;;;;;;;;6372376;22;20030;-95
2023/07/16 06:38:10;;;;;;;7.10;5.40;;;;;;;;;;6370453;22;20003;-96
2023/07/16 06:40:55;;;;;;;8.20;5.20;;;;;;;;;;6377169;22;19999;-96
2023/07/16 06:43:24;;;;;;;11.52;5.10;;;;;;;;;;6370455;22;20006;-95
2023/07/16 06:45:51;;;;;;;5.72;4.43;;;;;;;;;;6344308;22;20038;-95
2023/07/16 06:48:23;;;;;;;4.90;4.40;;;;;;;;;;6369984;22;20002;-94
2023/07/16 06:50:53;;;;;;;8.07;5.47;;;;;;;;;;6369981;22;20020;-96
2023/07/16 06:53:19;;;;;;;8.68;5.93;;;;;;;;;;6370874;22;20009;-94
2023/07/16 06:55:48;;;;;;;6.03;5.32;;;;;;;;;;6371767;22;20328;-96
2023/07/16 06:58:18;;;;;;;5.85;4.72;;;;;;;;;;6370542;22;20010;-96
2023/07/16 07:00:50;;;;;;;8.18;4.80;;;;;;;;;;6344512;22;20002;-96
2023/07/16 07:03:40;;;;;;;5.55;4.82;;;;;;;;;;6370085;22;19999;-95
2023/07/16 07:06:07;;;;;;;6.30;4.40;;;;;;;;;;6370955;22;20423;-96
2023/07/16 07:08:33;;;;;;;9.13;4.60;;;;;;;;;;6370394;22;20007;-96
2023/07/16 07:14:25;;;;;;;5.80;4.57;;;;;;;;;;6275778;22;20371;-94
2023/07/16 07:17:09;;;;;;;8.18;4.57;;;;;;;;;;6249309;22;20004;-94
2023/07/16 07:19:44;;;;;;;6.70;4.78;;;;;;;;;;6250381;22;20007;-93
2023/07/16 07:22:10;;;;;;;8.05;4.30;;;;;;;;;;6250454;22;20004;-92
2023/07/16 07:24:52;;;;;;;10.38;4.45;;;;;;;;;;6251369;22;20054;-93
2023/07/16 07:30:21;;;;;;;5.32;4.45;;;;;;;;;;6289636;22;20118;-93
2023/07/16 07:32:47;;;;;;;7.97;4.82;;;;;;;;;;6251544;22;20018;-94
2023/07/16 07:35:13;;;;;;;9.55;4.68;;;;;;;;;;6256777;22;20043;-95
2023/07/16 07:37:42;;;;;;;5.18;4.20;;;;;;;;;;6259729;22;20127;-93
2023/07/16 07:40:11;;;;;;;10.68;4.80;;;;;;;;;;6251670;22;20007;-95
2023/07/16 07:42:51;;;;;;;5.45;4.18;;;;;;;;;;6252802;22;20034;-95
2023/07/16 07:47:59;;;;;;;5.60;3.70;;;;;;;;;;6355140;22;20026;-93
2023/07/16 07:50:31;;;;;;;5.47;3.92;;;;;;;;;;6344827;22;20007;-94
2023/07/16 07:53:00;;;;;;;8.65;3.97;;;;;;;;;;6345225;22;20006;-94
2023/07/16 07:55:52;;;;;;;4.78;3.70;;;;;;;;;;6344720;22;20403;-96
2023/07/16 07:58:48;;;;;;;14.80;4.68;;;;;;;;;;6331352;22;20376;-95
2023/07/16 08:01:14;;;;;;;6.72;4.00;;;;;;;;;;6345549;22;20710;-95
2023/07/16 08:03:41;;;;;;;9.25;4.80;;;;;;;;;;6345162;22;20007;-96
2023/07/16 08:09:25;;;;;;;4.68;4.05;;;;;;;;;;6373239;22;20043;-96
2023/07/16 08:11:57;;;;;;;5.55;4.28;;;;;;;;;;6345556;22;20014;-93
2023/07/16 08:17:23;;;;;;;5.88;4.45;;;;;;;;;;6218240;23;20028;-90
2023/07/16 08:19:52;;;;;;;5.40;3.97;;;;;;;;;;6336973;22;20030;-94
2023/07/16 08:22:21;;;;;;;7.38;3.80;;;;;;;;;;6349392;22;20006;-94
2023/07/16 08:25:03;;;;;;;13.73;4.35;;;;;;;;;;6353431;22;20014;-91
2023/07/16 08:28:07;;;;;;;6.35;4.10;;;;;;;;;;6358880;22;19987;-93
2023/07/16 08:30:45;;;;;;;;;;;;;;;;;;;;;
2023/07/16 08:33:23;;;;;;;7.07;4.47;;;;;;;;;;6371745;22;20026;-96
2023/07/16 08:35:54;;;;;;;5.20;4.30;;;;;;;;;;6354415;22;20006;-93
2023/07/16 08:41:07;;;;;;;5.00;4.20;;;;;;;;;;6388114;22;20019;-94
2023/07/16 08:43:37;;;;;;;7.70;4.53;;;;;;;;;;6353471;22;20002;-94
2023/07/16 08:46:16;;;;;;;6.55;4.28;;;;;;;;;;6345134;22;20013;-93
2023/07/16 08:48:42;;;;;;;6.63;3.97;;;;;;;;;;6344647;22;20024;-94
2023/07/16 08:51:24;;;;;;;5.65;4.63;;;;;;;;;;6344618;22;20014;-94
2023/07/16 08:53:56;;;;;;;9.50;4.50;;;;;;;;;;6345122;22;20003;-92
2023/07/16 08:56:22;;;;;;;6.85;4.25;;;;;;;;;;6345560;22;20006;-93
2023/07/16 08:58:52;;;;;;;8.02;3.83;;;;;;;;;;6345511;22;19999;-94
2023/07/16 09:01:21;;;;;;;6.97;4.45;;;;;;;;;;6345516;22;20010;-93
2023/07/16 09:03:54;;;;;;;5.18;4.15;;;;;;;;;;6345338;22;20427;-94
2023/07/16 09:06:26;;;;;;;7.22;4.60;;;;;;;;;;6344938;22;20055;-93
2023/07/16 09:08:55;;;;;;;6.63;4.07;;;;;;;;;;6346912;22;20014;-92
2023/07/16 09:14:06;;;;;;;8.07;4.85;;;;;;;;;;6356967;22;20027;-93
2023/07/16 09:20:27;;;;;;;;;;;;;;;;;;;;;
2023/07/16 09:22:59;;;;;;;5.43;4.30;;;;;;;;;;6248297;23;20095;-94
2023/07/16 09:25:26;;;;;;;6.35;4.78;;;;;;;;;;6247270;23;20000;-92
2023/07/16 09:28:34;;;;;;;9.55;5.10;;;;;;;;;;6248914;23;20390;-91
2023/07/16 09:30:54;;;;;;;7.20;4.90;;;;;;;;;;6246484;23;20031;-91
2023/07/16 09:36:26;;;;;;;6.43;4.85;;;;;;;;;;6246980;23;20022;-92
2023/07/16 09:38:56;;;;;;;7.20;4.90;;;;;;;;;;6293505;22;20014;-92
2023/07/16 09:41:28;;;;;;;7.00;4.60;;;;;;;;;;6324542;22;19999;-93
2023/07/16 09:44:01;;;;;;;6.70;5.20;;;;;;;;;;6319070;22;20316;-95
2023/07/16 09:46:33;;;;;;;7.70;4.60;;;;;;;;;;6314475;22;19998;-91
2023/07/16 09:52:03;;;;;;;10.23;5.20;;;;;;;;;;6342624;22;19933;-92
2023/07/16 09:54:32;;;;;;;8.40;5.57;;;;;;;;;;6314350;22;20003;-93
2023/07/16 09:57:05;;;;;;;8.77;4.90;;;;;;;;;;6314012;22;20006;-91
2023/07/16 09:59:36;;;;;;;8.15;4.80;;;;;;;;;;6335914;22;20092;-91
2023/07/16 10:02:03;;;;;;;7.38;5.47;;;;;;;;;;6313548;22;20007;-90
2023/07/16 10:04:39;;;;;;;8.32;5.20;;;;;;;;;;6313362;22;20057;-92
2023/07/16 10:07:05;;;;;;;9.63;4.70;;;;;;;;;;6313607;22;20037;-91
2023/07/16 10:09:52;;;;;;;8.68;5.20;;;;;;;;;;6316467;22;19999;-91
2023/07/16 10:12:22;;;;;;;7.20;4.90;;;;;;;;;;6338390;22;20025;-91
2023/07/16 10:15:15;;;;;;;7.13;4.60;;;;;;;;;;6333589;22;20003;-92
2023/07/16 10:17:55;;;;;;;6.50;4.75;;;;;;;;;;6334061;22;20033;-95
2023/07/16 10:20:32;;;;;;;10.18;4.50;;;;;;;;;;6320451;22;20011;-93
2023/07/16 10:23:29;;;;;;;6.55;4.57;;;;;;;;;;6316004;22;20003;-94
2023/07/16 10:26:14;;;;;;;9.10;4.43;;;;;;;;;;6319633;22;20007;-96
2023/07/16 10:28:40;;;;;;;10.93;4.55;;;;;;;;;;6319575;22;20003;-94
2023/07/16 10:31:26;;;;;;;8.68;4.50;;;;;;;;;;6318848;22;20011;-96
2023/07/16 10:37:13;;;;;;;7.75;4.70;;;;;;;;;;6369923;22;20044;-92
2023/07/16 10:39:53;;;;;;;5.55;4.82;;;;;;;;;;6343548;22;20076;-93
2023/07/16 10:42:19;;;;;;;7.05;5.05;;;;;;;;;;6344859;22;20003;-94
2023/07/16 10:44:45;;;;;;;7.72;5.28;;;;;;;;;;6343787;22;20313;-91
2023/07/16 10:47:25;;;;;;;8.80;5.18;;;;;;;;;;6347986;22;19999;-93
2023/07/16 10:49:54;;;;;;;7.50;5.13;;;;;;;;;;6346656;22;20006;-93
2023/07/16 10:52:30;;;;;;;5.65;4.93;;;;;;;;;;6345782;22;20010;-93
2023/07/16 10:54:57;;;;;;;8.43;5.10;;;;;;;;;;6343465;22;20003;-91
2023/07/16 10:57:30;;;;;;;6.95;5.15;;;;;;;;;;6344494;22;20007;-92
2023/07/16 11:03:02;;;;;;;9.93;6.72;;;;;;;;;;6374563;22;20009;-92
2023/07/16 11:08:53;;;;;;;8.60;6.80;;;;;;;;;;6360000;22;20081;-93
2023/07/16 11:11:48;;;;;;;11.70;7.25;;;;;;;;;;6346622;22;20101;-94
2023/07/16 11:14:23;;;;;;;8.98;6.47;;;;;;;;;;6249392;23;20004;-96
2023/07/16 11:17:04;;;;;;;8.57;6.95;;;;;;;;;;6230842;22;20015;-95
2023/07/16 11:57:36;;;;;;;7.80;5.68;;;;;;;;;;6354262;22;20010;-94
2023/07/16 12:15:17;;;;;;;7.97;5.47;;;;;;;;;;6358183;22;20031;-96
2023/07/16 12:20:52;;;;;;;8.77;5.60;;;;;;;;;;6361995;22;20361;-96
2023/07/16 12:26:50;;;;;;;;;;;;;;;;;;;;;
2023/07/16 12:32:29;;;;;;;7.57;4.90;;;;;;;;;;6252923;22;20134;-95
2023/07/16 12:40:57;;;;;;;7.18;5.20;;;;;;;;;;6199183;23;20016;-93
2023/07/16 12:44:00;;;;;;;6.78;5.22;;;;;;;;;;6195929;23;20005;-95
2023/07/16 12:49:23;;;;;;;12.40;6.00;;;;;;;;;;6222732;23;20008;-95
2023/07/16 12:51:49;;;;;;;10.32;5.70;;;;;;;;;;6204131;23;20016;-94
2023/07/16 13:00:53;;;;;;;9.23;6.07;;;;;;;;;;6122051;23;20085;-96
2023/07/16 13:06:38;;;;;;;7.10;6.40;;;;;;;;;;6047849;23;20055;-96
2023/07/16 13:09:05;;;;;;;8.25;6.30;;;;;;;;;;6115175;23;20014;-96
2023/07/16 13:12:15;;;;;;;7.05;5.60;;;;;;;;;;6106188;23;20014;-95
2023/07/16 13:17:58;;;;;;;;;;;;;;;;;;6078732;23;20380;-96
2023/07/16 13:20:46;;;;;;;6.85;5.72;;;;;;;;;;6077873;23;19941;-96
2023/07/16 13:23:21;;;;;;;7.47;6.13;;;;;;;;;;6082327;23;20022;-95
2023/07/16 13:25:54;;;;;;;8.15;5.70;;;;;;;;;;6082689;23;20011;-96
2023/07/16 13:28:42;;;;;;;8.52;6.00;;;;;;;;;;6112223;23;20064;-96
2023/07/16 13:31:52;;;;;;;6.38;5.30;;;;;;;;;;6178145;23;20083;-96
2023/07/16 13:34:19;;;;;;;7.45;5.97;;;;;;;;;;6196988;23;20060;-96
2023/07/16 13:36:50;;;;;;;6.00;5.40;;;;;;;;;;6199408;23;20005;-96
2023/07/16 13:39:16;;;;;;;9.63;5.63;;;;;;;;;;6285061;22;20022;-94
2023/07/16 13:44:19;;;;;;;6.10;5.25;;;;;;;;;;6321221;22;20038;-94
2023/07/16 13:53:19;;;;;;;6.82;4.78;;;;;;;;;;6379447;22;20040;-96
2023/07/16 13:55:49;;;;;;;;;;;;;;;;;;6377461;22;20006;-95
2023/07/16 13:58:18;;;;;;;8.43;5.25;;;;;;;;;;6346271;22;19899;-95
2023/07/16 14:01:18;;;;;;;6.75;4.82;;;;;;;;;;6349643;22;20013;-95
2023/07/16 14:03:50;;;;;;;8.05;5.43;;;;;;;;;;6345851;22;20055;-93
2023/07/16 14:06:25;;;;;;;10.30;5.82;;;;;;;;;;6352234;22;20451;-95
2023/07/16 14:08:51;;;;;;;6.97;5.80;;;;;;;;;;6353991;22;20010;-94
2023/07/16 14:14:07;;;;;;;8.23;5.03;;;;;;;;;;6375617;22;20014;-91
2023/07/16 14:16:44;;;;;;;6.72;5.00;;;;;;;;;;6347645;22;20057;-94
2023/07/16 14:19:13;;;;;;;7.57;4.95;;;;;;;;;;6347847;22;20078;-94
2023/07/16 14:21:40;;;;;;;8.23;5.07;;;;;;;;;;6346634;22;20007;-94
2023/07/16 14:24:43;;;;;;;6.10;4.82;;;;;;;;;;6344836;22;20058;-90
2023/07/16 14:27:09;;;;;;;9.75;5.18;;;;;;;;;;6344940;22;20032;-92
2023/07/16 14:29:36;;;;;;;6.38;4.28;;;;;;;;;;6344314;22;20041;-88
2023/07/16 14:32:05;;;;;;;8.73;5.03;;;;;;;;;;6368966;22;20065;-94
2023/07/16 14:34:34;;;;;;;5.80;4.78;;;;;;;;;;6366896;22;20007;-91
2023/07/16 14:37:00;;;;;;;10.73;5.05;;;;;;;;;;6355471;22;20030;-92
2023/07/16 14:39:26;;;;;;;5.43;4.55;;;;;;;;;;6349576;22;19998;-93
2023/07/16 14:41:54;;;;;;;6.70;4.75;;;;;;;;;;6348913;22;20131;-92
2023/07/16 14:44:20;;;;;;;6.35;4.25;;;;;;;;;;6349209;22;20003;-94
2023/07/16 14:46:51;;;;;;;8.30;4.88;;;;;;;;;;6327507;22;20023;-96
2023/07/16 14:49:20;;;;;;;7.68;5.25;;;;;;;;;;6310443;22;20030;-95
2023/07/16 14:51:49;;;;;;;5.47;4.93;;;;;;;;;;6310946;22;20447;-96
2023/07/16 14:54:33;;;;;;;9.25;5.32;;;;;;;;;;6311460;22;20003;-96
2023/07/16 14:57:00;;;;;;;7.43;5.72;;;;;;;;;;6313641;22;20086;-93
2023/07/16 15:02:38;;;;;;;6.72;5.05;;;;;;;;;;6289681;22;20097;-93
2023/07/16 15:05:21;;;;;;;6.53;4.88;;;;;;;;;;6310360;22;20007;-92
2023/07/16 15:14:29;;;;;;;;;;;;;;;;;;;;;
2023/07/16 15:18:10;;;;;;;6.85;5.22;;;;;;;;;;6310574;22;20074;-94
2023/07/16 15:20:41;;;;;;;5.30;4.80;;;;;;;;;;6282206;22;20003;-94
2023/07/16 15:23:09;;;;;;;6.80;5.28;;;;;;;;;;6302406;22;20315;-94
2023/07/16 15:26:05;;;;;;;;;;;;;;;;;;;;;
2023/07/16 15:28:48;;;;;;;;;;;;;;;;;;;;;
2023/07/16 15:31:27;;;;;;;8.13;5.00;;;;;;;;;;6323107;22;20022;-94
2023/07/16 15:34:46;;;;;;;8.00;4.45;;;;;;;;;;6336680;22;20007;-94
2023/07/16 15:37:21;;;;;;;6.45;4.78;;;;;;;;;;6304676;22;20425;-96
2023/07/16 15:46:05;;;;;;;10.25;5.10;;;;;;;;;;6286459;22;20468;-95
2023/07/16 15:48:31;;;;;;;5.35;4.43;;;;;;;;;;6285554;22;20018;-94
2023/07/16 15:51:11;;;;;;;6.97;4.75;;;;;;;;;;6285858;22;20011;-96
2023/07/16 15:53:37;;;;;;;7.18;4.88;;;;;;;;;;6302857;22;20011;-95
2023/07/16 15:56:04;;;;;;;5.97;4.82;;;;;;;;;;6297280;22;20007;-96
2023/07/16 15:58:38;;;;;;;8.82;4.97;;;;;;;;;;6287825;22;20003;-95
2023/07/16 16:01:06;;;;;;;7.95;4.75;;;;;;;;;;6284807;22;20417;-96
2023/07/16 16:03:34;;;;;;;5.72;4.47;;;;;;;;;;6284371;22;20004;-95
2023/07/16 16:06:00;;;;;;;5.60;4.82;;;;;;;;;;6283834;22;20003;-95
2023/07/16 16:08:26;;;;;;;5.78;4.75;;;;;;;;;;6286480;22;20010;-94
2023/07/16 16:10:53;;;;;;;6.30;4.55;;;;;;;;;;6283605;22;20019;-96
2023/07/16 16:13:21;;;;;;;7.35;4.60;;;;;;;;;;6285923;22;20011;-96
2023/07/16 16:15:47;;;;;;;5.78;5.10;;;;;;;;;;6287188;22;20007;-95
2023/07/16 16:18:19;;;;;;;8.20;5.00;;;;;;;;;;6284295;22;19999;-94
2023/07/16 16:20:46;;;;;;;8.88;5.28;;;;;;;;;;6284691;22;20064;-95
2023/07/16 16:23:14;;;;;;;7.60;4.80;;;;;;;;;;6284341;22;20003;-96
2023/07/16 16:25:42;;;;;;;8.23;4.50;;;;;;;;;;6284620;22;20068;-96
2023/07/16 16:28:09;;;;;;;8.07;4.55;;;;;;;;;;6284647;22;20003;-94
2023/07/16 16:30:43;;;;;;;7.13;4.85;;;;;;;;;;6282723;22;20014;-95
2023/07/16 16:33:09;;;;;;;6.45;4.85;;;;;;;;;;6283388;22;20011;-95
2023/07/16 16:35:39;;;;;;;6.93;4.90;;;;;;;;;;6299347;22;20030;-96
2023/07/16 16:38:09;;;;;;;6.32;4.95;;;;;;;;;;6336986;22;19995;-94
2023/07/16 16:40:42;;;;;;;10.70;5.25;;;;;;;;;;6275357;22;20014;-95
2023/07/16 16:43:17;;;;;;;9.65;4.75;;;;;;;;;;6286015;22;20003;-95
2023/07/16 16:45:45;;;;;;;9.68;4.90;;;;;;;;;;6285079;22;20459;-96
2023/07/16 16:48:11;;;;;;;7.45;4.78;;;;;;;;;;6283708;22;20003;-96
2023/07/16 16:50:39;;;;;;;6.55;5.13;;;;;;;;;;6282732;22;20104;-96
2023/07/16 16:53:09;;;;;;;8.88;5.30;;;;;;;;;;6284977;22;20003;-96
2023/07/16 16:55:35;;;;;;;6.50;5.80;;;;;;;;;;6284815;22;20356;-96
2023/07/16 16:58:01;;;;;;;8.98;6.03;;;;;;;;;;6285899;22;20451;-95
2023/07/16 17:00:35;;;;;;;6.38;5.65;;;;;;;;;;6284313;22;20007;-96
2023/07/16 17:03:10;;;;;;;8.68;5.93;;;;;;;;;;6285409;22;20090;-96
2023/07/16 17:05:36;;;;;;;8.40;5.95;;;;;;;;;;6284631;22;20393;-96
2023/07/16 17:08:25;;;;;;;9.45;5.28;;;;;;;;;;6309907;22;20004;-95
2023/07/16 17:11:20;;;;;;;7.15;5.53;;;;;;;;;;6310879;22;20011;-96
2023/07/16 17:13:46;;;;;;;8.05;5.40;;;;;;;;;;6278378;22;20498;-96
2023/07/16 17:19:33;;;;;;;10.95;5.85;;;;;;;;;;6311587;22;20011;-94
2023/07/16 17:22:01;;;;;;;11.02;5.40;;;;;;;;;;6282289;22;20007;-95
2023/07/16 17:24:30;;;;;;;9.55;5.47;;;;;;;;;;6260435;22;20003;-96
2023/07/16 17:27:22;;;;;;;7.80;5.18;;;;;;;;;;6302552;22;20002;-93
2023/07/16 17:32:24;;;;;;;9.68;5.72;;;;;;;;;;6371527;22;20022;-93
2023/07/16 17:34:50;;;;;;;8.15;5.03;;;;;;;;;;6353365;22;19994;-94
2023/07/16 17:37:19;;;;;;;11.07;5.63;;;;;;;;;;6349463;22;20006;-95
2023/07/16 17:39:47;;;;;;;21.13;6.25;;;;;;;;;;6372581;22;20058;-94
2023/07/16 17:42:55;;;;;;;67.03;9.20;;;;;;;;;;6354462;22;19998;-96
2023/07/16 17:48:10;;;;;;;9.30;6.50;;;;;;;;;;6224284;23;20009;-95
2023/07/16 17:50:43;;;;;;;6.95;6.22;;;;;;;;;;6330213;22;20030;-94
2023/07/16 17:53:09;;;;;;;10.82;6.60;;;;;;;;;;6350232;22;20336;-93
2023/07/16 17:55:36;;;;;;;10.85;7.35;;;;;;;;;;6360071;22;20002;-94
2023/07/16 17:58:02;;;;;;;10.25;7.80;;;;;;;;;;6364449;22;20031;-93
2023/07/16 18:00:31;;;;;;;8.15;6.28;;;;;;;;;;6353484;22;19998;-93
2023/07/16 18:02:57;;;;;;;10.98;7.65;;;;;;;;;;6346581;22;20032;-91
2023/07/16 18:05:26;;;;;;;14.60;7.45;;;;;;;;;;6344927;22;20073;-96
2023/07/16 18:07:52;;;;;;;10.40;7.68;;;;;;;;;;6343605;22;20002;-95
2023/07/16 18:10:29;;;;;;;12.77;7.30;;;;;;;;;;6344344;22;19998;-94
2023/07/16 18:13:21;;;;;;;15.07;7.25;;;;;;;;;;6344379;22;20067;-94
2023/07/16 18:15:47;;;;;;;10.20;6.78;;;;;;;;;;6332811;22;20002;-90
2023/07/16 18:18:13;;;;;;;13.35;7.18;;;;;;;;;;6344529;22;20075;-91
2023/07/16 18:20:42;;;;;;;12.98;8.90;;;;;;;;;;6358385;22;19982;-93
2023/07/16 18:26:32;;;;;;;17.15;14.02;;;;;;;;;;6308879;22;20090;-95
2023/07/16 18:29:31;;;;;;;;;;;;;;;;;;;;;
2023/07/16 18:31:58;;;;;;;16.88;13.50;;;;;;;;;;6188417;23;20339;-93
2023/07/16 18:34:33;;;;;;;15.05;12.68;;;;;;;;;;6193488;23;20056;-96
2023/07/16 18:52:42;;;;;;;14.93;13.20;;;;;;;;;;6214386;23;20036;-96
2023/07/16 18:55:10;;;;;;;15.15;13.82;;;;;;;;;;6214040;23;20083;-96
2023/07/16 18:57:43;;;;;;;16.00;14.25;;;;;;;;;;6215912;23;20446;-94
2023/07/16 19:12:28;;;;;;;14.10;12.65;;;;;;;;;;6371908;22;20093;-92
2023/07/16 19:18:01;;;;;;;16.08;14.55;;;;;;;;;;6372299;22;20010;-94
2023/07/16 19:20:38;;;;;;;15.07;13.57;;;;;;;;;;6346017;22;20093;-93
2023/07/16 19:23:28;;;;;;;15.30;13.73;;;;;;;;;;6346684;22;20010;-93
2023/07/16 19:26:14;;;;;;;15.25;13.77;;;;;;;;;;6346148;22;20022;-94
2023/07/16 19:28:44;;;;;;;14.23;12.80;;;;;;;;;;6347302;22;20034;-95
2023/07/16 19:37:17;;;;;;;;;;;;;;;;;;;;;
2023/07/16 19:39:44;;;;;;;15.50;13.85;;;;;;;;;;6343540;22;20081;-96
2023/07/16 19:45:13;;;;;;;;;;;;;;;;;;6344419;22;20332;-96
2023/07/16 20:41:41;;;;;;;15.75;14.32;;;;;;;;;;6322163;22;20072;-96